Hlavní strana
METAR-TAF:

METAR-TAF

Letiště :

Pápa, Maďarsko

zeměpisná šířka: 47-12N, zeměpisná délka: 017-30E, výška: 145 m

Aktuální stav počasí

Zpráva byla vytvořena před 45 minutami, v 20:15 UTC
Jižní vítr 4 kt
Teplota 20°C
Vlhkost vzduchu 88%
Tlak 1018 hPa
Viditelnost 10 km a více
Žádná oblačnost pod 1500 m, nevyskytují se cumulonimby.

METAR: LHPA 192015Z 17004KT CAVOK 20/18 Q1018 NOSIG RMK BLU

Čas: 23:00 (21:00 UTC)

Předpověď počasí

Zpráva byla vytvořena před 3 hodinami a 45 minutami, v 17:15 UTC
Předpověď platná od 19 v 18 UTC do 20 v 18 UTC
vítr z různých směrů 3 kt
Viditelnost 10 km a více
Žádná oblačnost pod 1500 m, nevyskytují se cumulonimby.
Dočasný
od 20 v 10 UTC do 20 v 18 UTC
Viditelnost 10 km a více
Polojasno ve výšce 5000 ft, Vertikální cumulus.

TAF: LHPA 191715Z 1918/2018 VRB03KT CAVOK TEMPO 2010/2018 9999 SCT050TCU

Stav a předpovědi počasí z více než 4 000 letišť (zprávy METAR a TAF).

Červené a žluté tečky na mapě představují dostupné meteorologické stanice.

Když kurzor umístíte na tečku, zobrazí se název stanice.

Pak kliknutím zobrazíte stav a předpověď počasí.

Chcete-li změnit mapu, kliknutím na zelené tlačítko se znaménkem +mapu přiblížíte, kliknutím na zelené tlačítko se znaménkem – mapu oddálíte a kliknutím na zelené šipky přejdete na sousední mapy.


METAR-TAF: